Time;durP1;ratioP1;P1;durP2;ratioP2;P2;SDS_P1;SDS_P2;PMS_P1;PMS_P2;Temp;Humidity;BMP_temperature;BMP_pressure;BME280_temperature;BME280_humidity;BME280_pressure;Samples;Min_cycle;Max_cycle;Signal;HPM_P1;HPM_P2
2022/04/17 00:01:58;;;;;;;13.70;7.07;;;;;;;;;;5094196;28;20296;-72
2022/04/17 00:04:23;;;;;;;14.77;7.43;;;;;;;;;;5088646;28;20038;-72
2022/04/17 00:06:49;;;;;;;15.33;7.97;;;;;;;;;;5101712;28;20039;-72
2022/04/17 00:09:14;;;;;;;16.30;8.40;;;;;;;;;;5097766;28;20036;-72
2022/04/17 00:11:41;;;;;;;12.70;7.10;;;;;;;;;;5105322;28;20036;-71
2022/04/17 00:14:10;;;;;;;16.90;7.53;;;;;;;;;;5097447;28;20076;-71
2022/04/17 00:16:36;;;;;;;20.00;7.77;;;;;;;;;;5097806;28;20036;-72
2022/04/17 00:19:02;;;;;;;14.83;7.53;;;;;;;;;;5097340;28;20032;-71
2022/04/17 00:21:27;;;;;;;17.57;8.00;;;;;;;;;;5093759;28;20406;-71
2022/04/17 00:23:53;;;;;;;13.77;7.00;;;;;;;;;;5090766;28;20028;-71
2022/04/17 00:26:19;;;;;;;13.53;7.83;;;;;;;;;;5097694;28;20034;-71
2022/04/17 00:28:44;;;;;;;16.47;7.67;;;;;;;;;;5103548;28;20028;-71
2022/04/17 00:31:10;;;;;;;16.00;7.03;;;;;;;;;;5104200;28;20055;-71
2022/04/17 00:33:36;;;;;;;14.63;7.77;;;;;;;;;;5099142;28;20032;-72
2022/04/17 00:36:02;;;;;;;19.80;8.60;;;;;;;;;;5103286;28;20084;-72
2022/04/17 00:38:27;;;;;;;17.03;9.10;;;;;;;;;;5098133;28;20032;-72
2022/04/17 00:40:56;;;;;;;18.80;9.13;;;;;;;;;;5103391;28;20030;-72
2022/04/17 00:43:33;;;;;;;15.23;9.33;;;;;;;;;;5097812;28;20485;-72
2022/04/17 00:45:59;;;;;;;15.87;8.33;;;;;;;;;;5092034;28;20035;-71
2022/04/17 00:48:25;;;;;;;16.27;7.87;;;;;;;;;;5102646;28;20046;-71
2022/04/17 00:50:54;;;;;;;16.53;9.20;;;;;;;;;;5097741;28;20036;-72
2022/04/17 00:53:23;;;;;;;20.17;8.33;;;;;;;;;;5104307;28;20031;-71
2022/04/17 00:55:50;;;;;;;14.87;8.50;;;;;;;;;;5099277;28;20040;-72
2022/04/17 00:58:16;;;;;;;18.73;8.53;;;;;;;;;;5096569;28;20024;-72
2022/04/17 01:00:42;;;;;;;20.13;8.33;;;;;;;;;;5102146;28;20038;-71
2022/04/17 01:03:10;;;;;;;18.13;8.97;;;;;;;;;;5098261;28;20077;-71
2022/04/17 01:05:38;;;;;;;17.33;8.43;;;;;;;;;;5102010;28;20027;-71
2022/04/17 01:08:04;;;;;;;15.57;8.60;;;;;;;;;;5097919;28;20051;-71
2022/04/17 01:10:31;;;;;;;15.80;8.20;;;;;;;;;;5101507;28;20357;-71
2022/04/17 01:12:58;;;;;;;16.70;9.03;;;;;;;;;;5099506;28;20039;-71
2022/04/17 01:15:24;;;;;;;20.80;8.73;;;;;;;;;;5097803;28;20036;-71
2022/04/17 01:17:49;;;;;;;18.10;9.60;;;;;;;;;;5102591;28;20064;-71
2022/04/17 01:20:16;;;;;;;18.67;9.27;;;;;;;;;;5098343;28;20341;-72
2022/04/17 01:26:56;;;;;;;15.07;8.47;;;;;;;;;;5098035;28;20100;-72
2022/04/17 01:28:26;;;;;;;16.90;8.13;;;;;;;;;;5094588;28;20093;-72
2022/04/17 01:30:56;;;;;;;21.47;8.87;;;;;;;;;;5101132;28;20035;-71
2022/04/17 01:33:23;;;;;;;18.87;8.83;;;;;;;;;;5100322;28;20027;-71
2022/04/17 01:35:49;;;;;;;19.93;8.87;;;;;;;;;;5100465;28;20031;-71
2022/04/17 01:38:15;;;;;;;19.97;8.53;;;;;;;;;;5098355;28;20031;-71
2022/04/17 01:40:40;;;;;;;16.93;8.33;;;;;;;;;;5100721;28;20108;-70
2022/04/17 01:43:10;;;;;;;15.53;7.90;;;;;;;;;;5098000;28;20040;-72
2022/04/17 01:45:35;;;;;;;18.47;8.70;;;;;;;;;;5100094;28;20062;-72
2022/04/17 01:48:01;;;;;;;16.73;8.93;;;;;;;;;;5098427;28;20656;-72
2022/04/17 01:50:27;;;;;;;21.13;9.67;;;;;;;;;;5100172;28;20042;-72
2022/04/17 01:52:53;;;;;;;17.70;8.43;;;;;;;;;;5097775;28;20038;-72
2022/04/17 01:55:19;;;;;;;17.23;8.47;;;;;;;;;;5101771;28;20023;-72
2022/04/17 01:57:45;;;;;;;16.83;7.97;;;;;;;;;;5095603;28;20087;-72
2022/04/17 02:00:11;;;;;;;14.33;8.17;;;;;;;;;;5097410;28;20032;-72
2022/04/17 02:02:37;;;;;;;18.30;7.80;;;;;;;;;;5101853;28;20476;-72
2022/04/17 02:05:02;;;;;;;22.37;10.77;;;;;;;;;;5097469;28;20080;-72
2022/04/17 02:07:28;;;;;;;22.00;9.73;;;;;;;;;;5100696;28;20130;-72
2022/04/17 02:09:53;;;;;;;19.63;9.97;;;;;;;;;;5096552;28;20402;-73
2022/04/17 02:12:19;;;;;;;19.93;10.17;;;;;;;;;;5102236;28;20023;-72
2022/04/17 02:14:44;;;;;;;20.97;10.53;;;;;;;;;;5096479;28;20085;-72
2022/04/17 02:17:10;;;;;;;20.10;10.17;;;;;;;;;;5101180;28;20030;-72
2022/04/17 02:19:36;;;;;;;24.47;9.70;;;;;;;;;;5095424;28;20034;-72
2022/04/17 02:22:01;;;;;;;17.53;9.57;;;;;;;;;;5093843;28;20397;-73
2022/04/17 02:24:27;;;;;;;18.60;9.90;;;;;;;;;;5095007;28;20039;-71
2022/04/17 02:26:52;;;;;;;26.10;10.07;;;;;;;;;;5095519;28;20130;-70
2022/04/17 02:29:19;;;;;;;20.93;9.67;;;;;;;;;;5100367;28;20031;-70
2022/04/17 02:31:45;;;;;;;20.27;9.07;;;;;;;;;;5095500;28;20036;-72
2022/04/17 02:34:10;;;;;;;19.87;9.07;;;;;;;;;;5102744;28;20421;-71
2022/04/17 02:36:36;;;;;;;22.93;9.80;;;;;;;;;;5095003;28;20038;-71
2022/04/17 02:39:01;;;;;;;19.53;9.00;;;;;;;;;;5102865;28;20027;-70
2022/04/17 02:41:27;;;;;;;18.73;10.53;;;;;;;;;;5088202;28;20054;-71
2022/04/17 02:43:52;;;;;;;16.83;8.97;;;;;;;;;;5087919;28;20134;-71
2022/04/17 02:47:42;;;;;;;22.33;9.40;;;;;;;;;;5101031;28;20031;-71
2022/04/17 02:49:03;;;;;;;18.43;8.40;;;;;;;;;;5093613;28;20167;-71
2022/04/17 02:51:29;;;;;;;18.23;9.87;;;;;;;;;;5099498;28;20126;-72
2022/04/17 02:53:54;;;;;;;19.60;8.67;;;;;;;;;;5097717;28;20491;-72
2022/04/17 02:56:20;;;;;;;17.30;9.57;;;;;;;;;;5099513;28;20031;-72
2022/04/17 02:58:45;;;;;;;11.47;8.17;;;;;;;;;;5095935;28;20034;-72
2022/04/17 03:06:38;;;;;;;21.83;8.37;;;;;;;;;;5096108;28;20059;-71
2022/04/17 03:09:04;;;;;;;13.87;8.27;;;;;;;;;;5094393;28;20452;-71
2022/04/17 03:11:29;;;;;;;13.53;7.57;;;;;;;;;;5100512;28;20036;-72
2022/04/17 03:13:55;;;;;;;15.57;7.83;;;;;;;;;;5095388;28;20437;-72
2022/04/17 03:16:20;;;;;;;18.33;8.47;;;;;;;;;;5101461;28;20034;-71
2022/04/17 03:18:46;;;;;;;14.23;7.57;;;;;;;;;;5094386;28;20094;-71
2022/04/17 03:21:11;;;;;;;14.77;7.67;;;;;;;;;;5091345;28;20122;-72
2022/04/17 03:23:37;;;;;;;18.37;8.33;;;;;;;;;;5101270;28;20032;-71
2022/04/17 03:26:03;;;;;;;17.63;8.63;;;;;;;;;;5097293;28;20460;-72
2022/04/17 03:28:28;;;;;;;19.53;9.77;;;;;;;;;;5099741;28;20471;-72
2022/04/17 03:30:54;;;;;;;16.50;8.43;;;;;;;;;;5097037;28;20032;-71
2022/04/17 03:33:19;;;;;;;14.90;8.53;;;;;;;;;;5099564;28;20020;-71
2022/04/17 03:35:45;;;;;;;13.43;7.37;;;;;;;;;;5102990;28;20513;-72
2022/04/17 03:38:10;;;;;;;19.73;9.27;;;;;;;;;;5097396;28;20020;-71
2022/04/17 03:40:36;;;;;;;18.57;8.47;;;;;;;;;;5099260;28;20031;-72
2022/04/17 03:43:02;;;;;;;18.30;9.03;;;;;;;;;;5101875;28;20085;-70
2022/04/17 03:45:27;;;;;;;18.10;8.60;;;;;;;;;;5102630;28;20023;-72
2022/04/17 03:47:53;;;;;;;17.37;8.60;;;;;;;;;;5100534;28;20073;-71
2022/04/17 03:50:19;;;;;;;18.60;8.70;;;;;;;;;;5102424;28;20110;-72
2022/04/17 03:52:49;;;;;;;15.87;9.40;;;;;;;;;;5100912;28;20038;-71
2022/04/17 03:55:16;;;;;;;17.60;8.80;;;;;;;;;;5098333;28;20028;-72
2022/04/17 03:57:42;;;;;;;17.07;8.87;;;;;;;;;;5104126;28;20023;-72
2022/04/17 04:00:12;;;;;;;17.33;8.67;;;;;;;;;;5100257;28;20411;-71
2022/04/17 04:02:39;;;;;;;22.67;9.57;;;;;;;;;;5102555;28;20500;-71
2022/04/17 04:05:05;;;;;;;20.90;9.67;;;;;;;;;;5101285;27;20031;-71
2022/04/17 04:07:30;;;;;;;21.30;10.27;;;;;;;;;;5102261;28;20058;-71
2022/04/17 04:09:56;;;;;;;18.27;9.50;;;;;;;;;;5099740;28;20032;-71
2022/04/17 04:12:21;;;;;;;17.53;7.83;;;;;;;;;;5101930;28;20031;-71
2022/04/17 04:14:47;;;;;;;10.93;7.60;;;;;;;;;;5100531;28;20028;-71
2022/04/17 04:17:12;;;;;;;25.30;9.57;;;;;;;;;;5101301;28;20331;-71
2022/04/17 04:19:38;;;;;;;19.53;8.67;;;;;;;;;;5100431;28;20444;-72
2022/04/17 04:22:04;;;;;;;14.83;8.40;;;;;;;;;;5098560;28;20461;-72
2022/04/17 04:24:31;;;;;;;16.47;8.90;;;;;;;;;;5100589;28;20032;-72
2022/04/17 04:29:40;;;;;;;17.50;8.93;;;;;;;;;;5105574;28;20071;-72
2022/04/17 04:32:07;;;;;;;19.47;8.27;;;;;;;;;;5103249;28;20062;-72
2022/04/17 04:34:32;;;;;;;18.80;9.20;;;;;;;;;;5098248;28;20703;-73
2022/04/17 04:36:58;;;;;;;23.10;9.27;;;;;;;;;;5102923;28;20114;-72
2022/04/17 04:39:23;;;;;;;12.50;8.40;;;;;;;;;;5099343;28;20055;-72
2022/04/17 04:41:49;;;;;;;16.37;8.67;;;;;;;;;;5104245;28;20394;-72
2022/04/17 04:44:14;;;;;;;22.23;8.50;;;;;;;;;;5099457;28;20437;-72
2022/04/17 04:46:40;;;;;;;17.13;8.57;;;;;;;;;;5103982;28;20451;-73
2022/04/17 04:51:50;;;;;;;13.87;8.77;;;;;;;;;;5094195;28;20104;-71
2022/04/17 04:54:16;;;;;;;18.00;8.47;;;;;;;;;;5102092;28;20304;-72
2022/04/17 04:56:42;;;;;;;15.53;8.03;;;;;;;;;;5103901;28;20027;-72
2022/04/17 04:59:09;;;;;;;18.17;8.60;;;;;;;;;;5098849;28;20024;-72
2022/04/17 05:01:35;;;;;;;16.70;8.60;;;;;;;;;;5103814;28;20052;-72
2022/04/17 05:04:00;;;;;;;16.97;9.33;;;;;;;;;;5102223;28;20032;-71
2022/04/17 05:06:26;;;;;;;17.87;8.73;;;;;;;;;;5097442;28;20054;-72
2022/04/17 05:08:51;;;;;;;22.37;9.97;;;;;;;;;;5102393;28;20065;-72
2022/04/17 05:11:17;;;;;;;17.17;8.80;;;;;;;;;;5097333;28;20028;-72
2022/04/17 05:13:43;;;;;;;16.87;8.60;;;;;;;;;;5102768;28;20419;-72
2022/04/17 05:16:09;;;;;;;13.70;7.90;;;;;;;;;;5096996;28;20392;-72
2022/04/17 05:18:34;;;;;;;17.83;8.87;;;;;;;;;;5103182;28;20023;-71
2022/04/17 05:21:01;;;;;;;16.40;8.97;;;;;;;;;;5089784;28;20235;-70
2022/04/17 05:23:29;;;;;;;19.80;8.17;;;;;;;;;;5096551;28;20028;-71
2022/04/17 05:25:57;;;;;;;19.43;9.73;;;;;;;;;;5096926;28;20048;-71
2022/04/17 05:28:24;;;;;;;17.27;9.10;;;;;;;;;;5101938;28;20403;-71
2022/04/17 05:30:49;;;;;;;22.00;9.83;;;;;;;;;;5096841;28;20036;-72
2022/04/17 05:33:19;;;;;;;14.93;8.77;;;;;;;;;;5102845;28;20392;-72
2022/04/17 05:35:45;;;;;;;15.00;8.27;;;;;;;;;;5095811;28;20028;-72
2022/04/17 05:38:13;;;;;;;13.07;7.83;;;;;;;;;;5102382;28;20383;-72
2022/04/17 05:40:46;;;;;;;14.37;7.80;;;;;;;;;;5097119;28;20032;-71
2022/04/17 05:43:12;;;;;;;15.83;6.93;;;;;;;;;;5101051;28;20035;-72
2022/04/17 05:45:38;;;;;;;14.00;7.20;;;;;;;;;;5097766;28;20448;-73
2022/04/17 05:48:12;;;;;;;11.17;7.63;;;;;;;;;;5078850;28;20047;-72
2022/04/17 05:50:38;;;;;;;16.20;8.37;;;;;;;;;;5100013;28;20039;-72
2022/04/17 05:53:04;;;;;;;12.83;7.30;;;;;;;;;;5098311;28;20475;-72
2022/04/17 05:55:31;;;;;;;17.63;8.53;;;;;;;;;;5101430;28;20042;-72
2022/04/17 05:57:57;;;;;;;15.93;8.13;;;;;;;;;;5096201;28;20036;-72
2022/04/17 06:00:23;;;;;;;13.13;8.20;;;;;;;;;;5079926;28;20680;-73
2022/04/17 06:02:49;;;;;;;17.87;8.50;;;;;;;;;;5100404;28;20075;-74
2022/04/17 06:05:15;;;;;;;18.37;9.90;;;;;;;;;;5097698;28;20110;-72
2022/04/17 06:07:41;;;;;;;15.73;9.60;;;;;;;;;;5099505;28;20514;-73
2022/04/17 06:10:09;;;;;;;14.00;7.60;;;;;;;;;;5097295;28;20032;-72
2022/04/17 06:12:35;;;;;;;13.43;6.77;;;;;;;;;;5101255;28;20069;-72
2022/04/17 06:15:02;;;;;;;14.17;6.83;;;;;;;;;;5080074;28;20400;-72
2022/04/17 06:17:34;;;;;;;11.33;6.37;;;;;;;;;;5099388;28;20096;-72
2022/04/17 06:20:05;;;;;;;8.75;5.05;;;;;;;;;;5082349;28;20467;-72
2022/04/17 06:22:30;;;;;;;8.70;4.77;;;;;;;;;;5101179;28;20046;-74
2022/04/17 06:24:56;;;;;;;11.77;5.83;;;;;;;;;;5097877;28;20483;-73
2022/04/17 06:27:22;;;;;;;9.40;5.33;;;;;;;;;;5100455;28;20036;-73
2022/04/17 06:29:48;;;;;;;8.57;5.23;;;;;;;;;;5102097;28;20387;-72
2022/04/17 06:32:13;;;;;;;8.10;4.53;;;;;;;;;;5101619;28;20521;-72
2022/04/17 06:34:39;;;;;;;10.13;5.07;;;;;;;;;;5099675;28;20107;-72
2022/04/17 06:37:04;;;;;;;10.33;4.77;;;;;;;;;;5098342;28;20023;-72
2022/04/17 06:39:31;;;;;;;8.50;5.10;;;;;;;;;;5098617;28;20031;-72
2022/04/17 06:41:57;;;;;;;8.30;4.90;;;;;;;;;;5098415;28;20019;-72
2022/04/17 06:44:22;;;;;;;8.73;5.17;;;;;;;;;;5098422;28;20096;-72
2022/04/17 06:46:48;;;;;;;9.03;6.00;;;;;;;;;;5097818;28;20023;-72
2022/04/17 06:49:14;;;;;;;8.10;5.07;;;;;;;;;;5098300;28;20472;-73
2022/04/17 06:51:40;;;;;;;9.40;5.20;;;;;;;;;;5097811;28;20026;-73
2022/04/17 06:54:06;;;;;;;14.13;5.93;;;;;;;;;;5098839;28;20038;-72
2022/04/17 06:56:31;;;;;;;7.93;4.87;;;;;;;;;;5097474;28;21006;-72
2022/04/17 06:58:58;;;;;;;10.33;5.30;;;;;;;;;;5098657;28;20391;-73
2022/04/17 07:01:24;;;;;;;9.80;4.73;;;;;;;;;;5101815;28;20038;-73
2022/04/17 07:03:50;;;;;;;9.50;5.27;;;;;;;;;;5097758;28;20028;-73
2022/04/17 07:06:16;;;;;;;11.17;5.70;;;;;;;;;;5098601;28;20080;-72
2022/04/17 07:08:41;;;;;;;8.23;5.07;;;;;;;;;;5096621;28;20044;-72
2022/04/17 07:11:07;;;;;;;8.97;5.63;;;;;;;;;;5098646;28;20032;-71
2022/04/17 07:13:33;;;;;;;11.33;5.17;;;;;;;;;;5096650;28;20085;-73
2022/04/17 07:15:59;;;;;;;10.77;5.90;;;;;;;;;;5102006;28;20544;-73
2022/04/17 07:18:25;;;;;;;9.87;5.33;;;;;;;;;;5098661;28;20016;-72
2022/04/17 07:20:51;;;;;;;10.97;5.40;;;;;;;;;;5090594;28;20492;-73
2022/04/17 07:23:16;;;;;;;12.57;5.23;;;;;;;;;;5097612;28;20073;-73
2022/04/17 07:25:42;;;;;;;11.10;6.13;;;;;;;;;;5102577;28;20436;-73
2022/04/17 07:28:12;;;;;;;7.27;4.73;;;;;;;;;;5094397;28;20361;-73
2022/04/17 07:30:37;;;;;;;16.00;7.50;;;;;;;;;;5100129;28;20060;-72
2022/04/17 07:33:03;;;;;;;10.93;6.67;;;;;;;;;;5096410;28;20467;-73
2022/04/17 07:35:30;;;;;;;8.83;6.07;;;;;;;;;;5102349;28;20043;-73
2022/04/17 07:38:01;;;;;;;10.67;5.97;;;;;;;;;;5098811;28;20041;-73
2022/04/17 07:40:29;;;;;;;10.35;5.65;;;;;;;;;;5096484;28;20126;-72
2022/04/17 07:42:58;;;;;;;13.10;6.03;;;;;;;;;;5098419;28;20074;-73
2022/04/17 07:45:24;;;;;;;11.20;4.77;;;;;;;;;;5096860;28;20039;-73
2022/04/17 07:47:50;;;;;;;7.33;4.50;;;;;;;;;;5097962;28;20099;-74
2022/04/17 07:50:17;;;;;;;14.73;5.93;;;;;;;;;;5097809;28;20467;-71
2022/04/17 07:52:44;;;;;;;8.80;4.83;;;;;;;;;;5097986;28;20028;-72
2022/04/17 07:55:12;;;;;;;10.23;5.10;;;;;;;;;;5096680;28;20032;-72
2022/04/17 08:00:23;;;;;;;42.40;14.90;;;;;;;;;;5095680;28;20499;-71
2022/04/17 08:02:53;;;;;;;17.40;6.77;;;;;;;;;;5099348;28;20114;-73
2022/04/17 08:05:24;;;;;;;10.33;5.33;;;;;;;;;;5100831;28;20032;-73
2022/04/17 08:07:51;;;;;;;13.13;8.17;;;;;;;;;;5094403;28;20044;-72
2022/04/17 08:10:17;;;;;;;8.97;5.33;;;;;;;;;;5100038;28;20110;-73
2022/04/17 08:12:43;;;;;;;9.90;5.00;;;;;;;;;;5094290;28;20535;-73
2022/04/17 08:15:09;;;;;;;8.57;4.47;;;;;;;;;;5100248;28;20059;-73
2022/04/17 08:17:36;;;;;;;7.83;4.43;;;;;;;;;;5095481;28;20068;-73
2022/04/17 08:20:03;;;;;;;10.30;4.90;;;;;;;;;;5095200;28;20031;-72
2022/04/17 08:22:28;;;;;;;9.47;4.63;;;;;;;;;;5096053;28;20062;-73
2022/04/17 08:24:54;;;;;;;8.80;5.07;;;;;;;;;;5100273;28;20486;-73
2022/04/17 08:27:19;;;;;;;6.37;4.20;;;;;;;;;;5100954;28;20468;-73
2022/04/17 08:29:45;;;;;;;11.43;5.60;;;;;;;;;;5097961;28;20483;-72
2022/04/17 08:32:10;;;;;;;9.10;4.17;;;;;;;;;;5100393;28;20093;-71
2022/04/17 08:34:36;;;;;;;7.40;3.70;;;;;;;;;;5105958;28;20049;-74
2022/04/17 08:37:02;;;;;;;7.47;4.43;;;;;;;;;;5099807;28;20110;-72
2022/04/17 08:39:27;;;;;;;9.13;4.30;;;;;;;;;;5103958;28;20032;-73
2022/04/17 08:41:56;;;;;;;9.20;4.50;;;;;;;;;;5098464;28;20530;-73
2022/04/17 08:44:22;;;;;;;7.63;4.20;;;;;;;;;;5104541;28;20100;-74
2022/04/17 08:46:48;;;;;;;8.70;4.53;;;;;;;;;;5099646;28;20468;-72
2022/04/17 08:49:14;;;;;;;6.27;4.23;;;;;;;;;;5102277;28;20114;-72
2022/04/17 08:51:47;;;;;;;9.90;5.33;;;;;;;;;;5103977;28;20027;-72
2022/04/17 08:54:13;;;;;;;8.43;5.00;;;;;;;;;;5103430;28;20034;-73
2022/04/17 08:56:38;;;;;;;8.53;4.53;;;;;;;;;;5096686;28;20396;-73
2022/04/17 08:59:06;;;;;;;8.67;3.80;;;;;;;;;;5104430;28;20079;-73
2022/04/17 09:01:35;;;;;;;7.30;4.33;;;;;;;;;;5105014;28;20067;-73
2022/04/17 09:04:03;;;;;;;8.53;4.23;;;;;;;;;;5090917;28;20168;-73
2022/04/17 09:06:29;;;;;;;9.47;4.17;;;;;;;;;;5104356;28;20037;-72
2022/04/17 09:09:05;;;;;;;6.27;3.80;;;;;;;;;;5098302;28;20123;-72
2022/04/17 09:11:32;;;;;;;7.00;4.40;;;;;;;;;;5101684;28;20027;-73
2022/04/17 09:14:01;;;;;;;7.60;3.97;;;;;;;;;;5098742;28;20066;-74
2022/04/17 09:16:34;;;;;;;6.70;4.10;;;;;;;;;;5102474;28;20388;-72
2022/04/17 09:19:15;;;;;;;5.90;4.10;;;;;;;;;;5099752;28;20273;-72
2022/04/17 09:21:41;;;;;;;7.47;3.83;;;;;;;;;;5095459;28;20425;-75
2022/04/17 09:24:19;;;;;;;5.63;2.93;;;;;;;;;;5097043;28;20068;-73
2022/04/17 09:26:50;;;;;;;5.03;3.57;;;;;;;;;;5076511;28;20348;-73
2022/04/17 09:29:18;;;;;;;5.40;3.33;;;;;;;;;;5101500;28;20019;-73
2022/04/17 09:31:44;;;;;;;5.60;2.93;;;;;;;;;;5098566;28;20544;-73
2022/04/17 09:34:09;;;;;;;5.80;3.40;;;;;;;;;;5101896;28;20035;-73
2022/04/17 09:36:37;;;;;;;4.70;2.60;;;;;;;;;;5096740;28;20391;-73
2022/04/17 09:39:16;;;;;;;10.27;3.27;;;;;;;;;;5101011;28;20119;-73
2022/04/17 09:41:55;;;;;;;32.20;15.80;;;;;;;;;;5102890;28;20118;-72
2022/04/17 09:44:37;;;;;;;6.13;3.70;;;;;;;;;;5099958;28;20032;-74
2022/04/17 09:47:04;;;;;;;5.57;2.93;;;;;;;;;;5082358;28;20080;-72
2022/04/17 09:49:30;;;;;;;7.37;2.87;;;;;;;;;;5088803;28;20040;-73
2022/04/17 09:52:07;;;;;;;5.97;2.80;;;;;;;;;;5088910;28;20048;-72
2022/04/17 09:54:33;;;;;;;5.00;2.37;;;;;;;;;;5091193;28;20388;-73
2022/04/17 09:56:58;;;;;;;3.60;2.53;;;;;;;;;;5101004;28;20038;-72
2022/04/17 09:59:24;;;;;;;5.80;3.33;;;;;;;;;;5096464;28;20028;-73
2022/04/17 10:01:52;;;;;;;8.75;4.10;;;;;;;;;;5100910;28;20027;-73
2022/04/17 10:04:19;;;;;;;4.72;3.17;;;;;;;;;;5096711;28;20464;-73
2022/04/17 10:06:57;;;;;;;6.03;2.65;;;;;;;;;;5100478;28;20042;-74
2022/04/17 10:09:23;;;;;;;4.33;2.70;;;;;;;;;;5101808;28;20095;-73
2022/04/17 10:11:51;;;;;;;6.00;3.38;;;;;;;;;;5097956;28;20051;-74
2022/04/17 10:14:17;;;;;;;7.10;4.22;;;;;;;;;;5098102;28;20479;-73
2022/04/17 10:16:48;;;;;;;5.38;3.85;;;;;;;;;;5099847;28;20083;-73
2022/04/17 10:19:15;;;;;;;7.25;4.13;;;;;;;;;;5097329;28;20221;-73
2022/04/17 10:21:42;;;;;;;6.68;3.55;;;;;;;;;;5099896;28;20039;-73
2022/04/17 10:24:14;;;;;;;4.07;2.95;;;;;;;;;;5098744;28;20027;-73
2022/04/17 10:26:48;;;;;;;9.03;3.90;;;;;;;;;;5097096;28;20174;-73
2022/04/17 10:29:22;;;;;;;9.82;4.03;;;;;;;;;;5101629;28;20492;-73
2022/04/17 10:32:12;;;;;;;8.20;4.20;;;;;;;;;;5089555;28;20044;-74
2022/04/17 10:34:53;;;;;;;6.37;3.70;;;;;;;;;;5095432;28;20027;-74
2022/04/17 10:37:52;;;;;;;7.03;4.67;;;;;;;;;;5101697;28;20058;-74
2022/04/17 10:40:18;;;;;;;6.40;4.33;;;;;;;;;;5093182;28;20038;-72
2022/04/17 10:42:55;;;;;;;8.47;4.30;;;;;;;;;;5099250;28;20425;-73
2022/04/17 10:45:22;;;;;;;7.93;4.03;;;;;;;;;;5098367;28;20032;-72
2022/04/17 10:48:10;;;;;;;5.37;3.70;;;;;;;;;;5096755;28;20440;-72
2022/04/17 10:50:48;;;;;;;6.43;3.40;;;;;;;;;;5088463;28;20538;-72
2022/04/17 10:53:52;;;;;;;9.47;3.60;;;;;;;;;;5098388;28;20035;-71
2022/04/17 10:56:19;;;;;;;6.53;3.37;;;;;;;;;;5081571;28;20171;-73
2022/04/17 10:58:55;;;;;;;8.03;3.70;;;;;;;;;;5095310;28;20107;-72
2022/04/17 11:01:42;;;;;;;7.40;3.80;;;;;;;;;;5098528;28;20027;-73
2022/04/17 11:04:26;;;;;;;6.63;4.70;;;;;;;;;;5099011;28;20481;-72
2022/04/17 11:07:12;;;;;;;9.20;4.53;;;;;;;;;;5081451;28;20467;-74
2022/04/17 11:09:42;;;;;;;9.70;4.23;;;;;;;;;;5098425;28;20039;-73
2022/04/17 11:12:18;;;;;;;7.73;3.70;;;;;;;;;;5097279;28;20452;-73
2022/04/17 11:15:06;;;;;;;8.63;4.33;;;;;;;;;;5100885;28;20528;-73
2022/04/17 11:17:32;;;;;;;9.80;3.70;;;;;;;;;;5091135;28;20471;-74
2022/04/17 11:20:00;;;;;;;7.90;4.30;;;;;;;;;;5093879;28;20054;-73
2022/04/17 11:22:33;;;;;;;7.63;3.70;;;;;;;;;;5096105;28;20070;-73
2022/04/17 11:24:58;;;;;;;9.73;4.13;;;;;;;;;;5083053;28;20040;-74
2022/04/17 11:27:48;;;;;;;5.40;3.50;;;;;;;;;;5095262;28;20447;-73
2022/04/17 11:30:14;;;;;;;5.93;3.57;;;;;;;;;;5088327;28;20252;-73
2022/04/17 11:32:39;;;;;;;5.78;3.53;;;;;;;;;;5099190;28;20118;-74
2022/04/17 11:35:09;;;;;;;7.50;3.65;;;;;;;;;;5096704;28;20105;-73
2022/04/17 11:37:37;;;;;;;6.45;3.90;;;;;;;;;;5099748;28;20031;-74
2022/04/17 11:40:16;;;;;;;7.95;3.60;;;;;;;;;;5095057;28;20224;-73
2022/04/17 11:42:43;;;;;;;9.73;3.15;;;;;;;;;;5087993;28;20028;-72
2022/04/17 11:45:10;;;;;;;4.57;2.50;;;;;;;;;;5095876;28;20024;-71
2022/04/17 11:47:42;;;;;;;6.72;3.00;;;;;;;;;;5101977;28;20466;-74
2022/04/17 11:50:09;;;;;;;6.78;3.03;;;;;;;;;;5098761;28;20034;-73
2022/04/17 11:52:35;;;;;;;4.63;2.30;;;;;;;;;;5071642;28;20125;-73
2022/04/17 11:55:01;;;;;;;5.07;2.30;;;;;;;;;;5100960;28;20040;-74
2022/04/17 11:57:26;;;;;;;3.97;2.50;;;;;;;;;;5099656;28;20210;-72
2022/04/17 11:59:57;;;;;;;6.57;2.42;;;;;;;;;;5094809;28;20024;-72
2022/04/17 12:02:25;;;;;;;6.65;3.17;;;;;;;;;;5101667;28;20077;-72
2022/04/17 12:04:53;;;;;;;3.78;2.42;;;;;;;;;;5097953;28;20028;-73
2022/04/17 12:07:20;;;;;;;3.10;2.33;;;;;;;;;;5099337;28;20044;-74
2022/04/17 12:09:46;;;;;;;3.53;2.65;;;;;;;;;;5103619;28;20460;-74
2022/04/17 12:12:19;;;;;;;6.50;2.97;;;;;;;;;;5099800;28;20053;-74
2022/04/17 12:14:52;;;;;;;5.50;2.95;;;;;;;;;;5102857;28;20085;-72
2022/04/17 12:17:20;;;;;;;5.13;2.92;;;;;;;;;;5101380;28;20027;-72
2022/04/17 12:19:50;;;;;;;5.25;2.60;;;;;;;;;;5100088;28;20024;-73
2022/04/17 12:22:19;;;;;;;5.00;2.65;;;;;;;;;;5095487;28;20315;-74
2022/04/17 12:24:47;;;;;;;5.10;2.42;;;;;;;;;;5099355;28;20062;-74
2022/04/17 12:27:14;;;;;;;4.35;2.67;;;;;;;;;;5103447;28;20046;-73
2022/04/17 12:29:41;;;;;;;4.03;2.40;;;;;;;;;;5098541;28;20210;-71
2022/04/17 12:32:25;;;;;;;5.80;3.03;;;;;;;;;;5102320;28;20031;-71
2022/04/17 12:35:02;;;;;;;4.57;2.25;;;;;;;;;;5092524;28;20032;-73
2022/04/17 12:37:33;;;;;;;4.43;2.53;;;;;;;;;;5102740;28;20031;-75
2022/04/17 12:40:12;;;;;;;4.45;2.67;;;;;;;;;;5100422;28;20058;-75
2022/04/17 12:42:39;;;;;;;3.47;2.22;;;;;;;;;;5103798;28;20137;-72
2022/04/17 12:45:06;;;;;;;4.72;2.30;;;;;;;;;;5099139;28;20062;-73
2022/04/17 12:47:32;;;;;;;4.53;2.58;;;;;;;;;;5101638;28;20035;-73
2022/04/17 12:50:05;;;;;;;4.07;2.08;;;;;;;;;;5100499;28;20454;-72
2022/04/17 12:52:31;;;;;;;3.45;2.17;;;;;;;;;;5085752;28;20417;-76
2022/04/17 12:54:59;;;;;;;4.32;2.33;;;;;;;;;;5103873;28;20031;-73
2022/04/17 12:57:25;;;;;;;4.18;2.15;;;;;;;;;;5097849;28;20148;-72
2022/04/17 12:59:51;;;;;;;5.72;3.65;;;;;;;;;;5104107;28;20145;-74
2022/04/17 13:02:27;;;;;;;5.63;2.30;;;;;;;;;;5099192;28;20032;-73
2022/04/17 13:04:57;;;;;;;3.63;2.35;;;;;;;;;;5090569;28;20039;-73
2022/04/17 13:07:30;;;;;;;2.22;1.98;;;;;;;;;;5090959;28;20080;-74
2022/04/17 13:09:58;;;;;;;4.07;2.13;;;;;;;;;;5102182;28;20023;-73
2022/04/17 13:12:44;;;;;;;2.47;1.60;;;;;;;;;;5098065;28;20399;-73
2022/04/17 13:15:11;;;;;;;2.72;1.95;;;;;;;;;;5099135;28;20467;-73
2022/04/17 13:17:51;;;;;;;3.45;1.80;;;;;;;;;;5100968;28;20043;-74
2022/04/17 13:20:19;;;;;;;4.10;1.77;;;;;;;;;;5097723;28;20054;-74
2022/04/17 13:22:45;;;;;;;3.83;1.55;;;;;;;;;;5102954;28;20024;-72
2022/04/17 13:25:15;;;;;;;4.30;1.83;;;;;;;;;;5102894;28;20168;-74
2022/04/17 13:27:41;;;;;;;2.53;1.42;;;;;;;;;;5090407;28;20155;-73
2022/04/17 13:30:11;;;;;;;8.73;2.38;;;;;;;;;;5090148;28;20062;-73
2022/04/17 13:32:40;;;;;;;3.60;2.53;;;;;;;;;;5084191;28;20035;-74
2022/04/17 13:35:08;;;;;;;3.85;2.10;;;;;;;;;;5099229;28;20093;-72
2022/04/17 13:40:18;;;;;;;6.80;1.92;;;;;;;;;;5108540;28;20034;-73
2022/04/17 13:42:44;;;;;;;2.97;1.98;;;;;;;;;;5108312;28;20233;-73
2022/04/17 13:45:09;;;;;;;5.15;1.60;;;;;;;;;;5103575;28;20106;-73
2022/04/17 13:47:36;;;;;;;1.67;1.13;;;;;;;;;;5105377;28;20382;-74
2022/04/17 13:50:07;;;;;;;2.30;1.60;;;;;;;;;;5099967;28;20028;-73
2022/04/17 13:52:34;;;;;;;4.95;1.90;;;;;;;;;;5100581;28;20024;-74
2022/04/17 13:55:02;;;;;;;2.53;1.83;;;;;;;;;;5101162;28;20581;-73
2022/04/17 13:57:27;;;;;;;2.58;1.58;;;;;;;;;;5096588;28;20502;-73
2022/04/17 13:59:53;;;;;;;3.28;1.88;;;;;;;;;;5099410;28;20019;-73
2022/04/17 14:02:19;;;;;;;2.35;1.60;;;;;;;;;;5099132;28;20023;-74
2022/04/17 14:04:44;;;;;;;4.75;1.95;;;;;;;;;;5098856;28;20088;-73
2022/04/17 14:07:10;;;;;;;5.80;2.05;;;;;;;;;;5099434;28;20059;-72
2022/04/17 14:09:37;;;;;;;2.90;1.42;;;;;;;;;;5099321;28;20193;-72
2022/04/17 14:12:06;;;;;;;3.67;1.52;;;;;;;;;;5099718;28;20150;-74
2022/04/17 14:14:33;;;;;;;3.17;1.60;;;;;;;;;;5099757;28;20035;-73
2022/04/17 14:16:58;;;;;;;3.53;1.52;;;;;;;;;;5082723;28;20934;-75
2022/04/17 14:19:24;;;;;;;3.60;1.77;;;;;;;;;;5097900;28;20433;-73
2022/04/17 14:21:49;;;;;;;2.05;1.58;;;;;;;;;;5074009;28;20040;-74
2022/04/17 14:24:15;;;;;;;3.20;1.45;;;;;;;;;;5099454;28;20458;-74
2022/04/17 14:26:41;;;;;;;2.53;1.52;;;;;;;;;;5096526;28;20028;-74
2022/04/17 14:29:07;;;;;;;4.28;2.13;;;;;;;;;;5099979;28;20066;-75
2022/04/17 14:31:32;;;;;;;3.60;1.98;;;;;;;;;;5096993;28;20035;-73
2022/04/17 14:33:58;;;;;;;3.78;2.03;;;;;;;;;;5099946;28;20114;-73
2022/04/17 14:36:26;;;;;;;3.92;1.42;;;;;;;;;;5098184;28;20028;-73
2022/04/17 14:38:53;;;;;;;5.40;1.50;;;;;;;;;;5083094;28;20035;-73
2022/04/17 14:41:19;;;;;;;2.60;1.77;;;;;;;;;;5098438;28;20020;-73
2022/04/17 14:43:44;;;;;;;4.15;1.77;;;;;;;;;;5102102;28;20345;-76
2022/04/17 14:46:10;;;;;;;2.65;2.00;;;;;;;;;;5099259;28;20034;-74
2022/04/17 14:48:37;;;;;;;1.92;1.48;;;;;;;;;;5097880;28;20028;-73
2022/04/17 14:51:03;;;;;;;2.53;1.65;;;;;;;;;;5099840;28;20049;-74
2022/04/17 14:53:31;;;;;;;3.92;1.85;;;;;;;;;;5097988;28;20102;-74
2022/04/17 14:56:01;;;;;;;2.35;1.58;;;;;;;;;;5101495;28;20028;-73
2022/04/17 14:58:28;;;;;;;4.22;1.50;;;;;;;;;;5098777;28;20037;-73
2022/04/17 15:00:54;;;;;;;3.85;1.60;;;;;;;;;;5097272;28;20487;-74